Enfield, North Carolina
Current Conditions -  °F | °C
As of 1:35 PM on Monday 20 Oct 2014 (Local Time) from KIXA Reporting Station
Clear Clear  
Wind Chill: 64°   Ceiling: Unl
Heat Index: 64°   Visibility: 10mi
Dew Point: 45°   Wind: 12mph
Humidity: 49%   Direction: 200°SSW
Pressure: 30.07"   Gusts: NA
Location:  36.18°N, 77.67°W
Report Text: KIXA 201735Z AUTO 20010KT 10SM CLR 18/07 A3007 RMK AO2
Loading
Personal Weather Stations






























Interactive Weather Map
Tropical Storm Tracking
New forecast layout! Learn more

10-Day Weather Forecast

Advertisements
Track Severe Weather on mobile